Time;durP1;ratioP1;P1;durP2;ratioP2;P2;SDS_P1;SDS_P2;PMS_P1;PMS_P2;Temp;Humidity;BMP_temperature;BMP_pressure;BME280_temperature;BME280_humidity;BME280_pressure;Samples;Min_cycle;Max_cycle;Signal;HPM_P1;HPM_P2
2024/01/05 00:00:37;;;;;;;19.23;6.53;;;5.80;99.90;;;;;;4912083;29;20191;-54
2024/01/05 00:03:03;;;;;;;20.17;5.77;;;5.80;99.90;;;;;;4916120;29;20192;-47
2024/01/05 00:05:29;;;;;;;19.10;4.77;;;5.80;99.90;;;;;;4911969;29;20192;-48
2024/01/05 00:07:54;;;;;;;12.80;3.50;;;5.70;99.90;;;;;;4898973;29;20275;-48
2024/01/05 00:10:20;;;;;;;10.50;3.00;;;5.70;99.90;;;;;;4916746;29;20223;-51
2024/01/05 00:12:45;;;;;;;13.73;3.43;;;5.70;99.90;;;;;;4908640;29;20193;-51
2024/01/05 00:15:12;;;;;;;11.17;3.43;;;5.70;99.90;;;;;;4913138;29;20188;-49
2024/01/05 00:17:37;;;;;;;11.77;3.43;;;5.70;99.90;;;;;;4903881;29;20187;-50
2024/01/05 00:20:04;;;;;;;14.90;3.93;;;5.70;99.90;;;;;;4915922;29;20243;-47
2024/01/05 00:22:30;;;;;;;13.90;3.17;;;5.70;99.90;;;;;;4914416;29;20198;-50
2024/01/05 00:24:56;;;;;;;15.97;3.50;;;5.80;99.90;;;;;;4915947;29;20191;-52
2024/01/05 00:27:21;;;;;;;14.50;3.30;;;5.80;99.90;;;;;;4908520;29;20328;-52
2024/01/05 00:29:47;;;;;;;19.30;3.77;;;5.90;99.90;;;;;;4916207;29;20226;-50
2024/01/05 00:32:13;;;;;;;15.23;4.10;;;6.00;99.90;;;;;;4912596;29;20555;-50
2024/01/05 00:34:38;;;;;;;13.30;3.33;;;5.90;99.90;;;;;;4910881;29;20739;-48
2024/01/05 00:37:04;;;;;;;16.70;4.53;;;5.90;99.90;;;;;;4914337;29;20192;-56
2024/01/05 00:39:29;;;;;;;22.83;4.70;;;6.00;99.90;;;;;;4910196;29;20211;-48
2024/01/05 00:41:55;;;;;;;19.53;3.70;;;6.00;99.90;;;;;;4914885;29;20188;-52
2024/01/05 00:44:20;;;;;;;10.50;3.50;;;6.00;99.90;;;;;;4908790;29;20176;-52
2024/01/05 00:46:46;;;;;;;18.23;3.93;;;6.00;99.90;;;;;;4900885;29;20236;-51
2024/01/05 00:49:12;;;;;;;19.77;3.67;;;6.00;99.90;;;;;;4915147;29;20255;-48
2024/01/05 00:51:37;;;;;;;16.53;3.20;;;6.00;99.90;;;;;;4915793;29;20197;-47
2024/01/05 00:54:03;;;;;;;19.13;3.10;;;6.00;99.90;;;;;;4913291;29;20606;-50
2024/01/05 00:56:28;;;;;;;9.27;2.80;;;6.10;99.90;;;;;;4909938;29;20298;-53
2024/01/05 00:58:54;;;;;;;11.73;2.77;;;6.10;99.90;;;;;;4915340;29;20590;-51
2024/01/05 01:01:19;;;;;;;14.83;2.83;;;6.10;99.90;;;;;;4915763;29;20187;-53
2024/01/05 01:03:45;;;;;;;13.23;3.07;;;6.10;99.90;;;;;;4907376;29;20703;-54
2024/01/05 01:06:11;;;;;;;17.67;2.40;;;6.00;99.90;;;;;;4897394;29;20608;-55
2024/01/05 01:08:36;;;;;;;7.03;2.47;;;6.00;99.90;;;;;;4909312;29;20215;-51
2024/01/05 01:11:03;;;;;;;9.47;2.20;;;6.00;99.90;;;;;;4915010;29;20220;-49
2024/01/05 01:13:29;;;;;;;15.97;2.87;;;6.00;99.90;;;;;;4915340;29;20219;-52
2024/01/05 01:15:54;;;;;;;17.00;2.90;;;6.10;99.90;;;;;;4915058;29;20192;-54
2024/01/05 01:18:20;;;;;;;11.57;2.30;;;6.10;99.90;;;;;;4915426;29;20203;-52
2024/01/05 01:20:46;;;;;;;11.27;2.83;;;6.10;99.90;;;;;;4915055;29;20202;-47
2024/01/05 01:23:11;;;;;;;13.70;2.93;;;6.20;99.90;;;;;;4914800;29;20191;-48
2024/01/05 01:25:38;;;;;;;16.63;2.73;;;6.20;99.90;;;;;;4915246;29;20191;-55
2024/01/05 01:28:04;;;;;;;19.40;3.13;;;6.20;99.90;;;;;;4907273;29;20196;-48
2024/01/05 01:30:30;;;;;;;12.23;2.67;;;6.20;99.90;;;;;;4910061;29;20227;-52
2024/01/05 01:32:55;;;;;;;19.40;3.20;;;6.20;99.90;;;;;;4911192;29;20191;-50
2024/01/05 01:35:21;;;;;;;13.00;2.67;;;6.30;99.90;;;;;;4908024;29;20216;-53
2024/01/05 01:37:46;;;;;;;12.97;2.57;;;6.20;99.90;;;;;;4907404;29;20192;-50
2024/01/05 01:40:12;;;;;;;11.07;3.20;;;6.20;99.90;;;;;;4904385;29;20587;-48
2024/01/05 01:42:43;;;;;;;9.00;2.40;;;6.20;99.90;;;;;;4909377;29;20199;-48
2024/01/05 01:45:09;;;;;;;9.97;2.50;;;6.20;99.90;;;;;;4906841;29;20648;-49
2024/01/05 01:47:34;;;;;;;16.50;2.90;;;6.20;99.90;;;;;;4906998;29;20210;-51
2024/01/05 01:50:01;;;;;;;12.77;2.77;;;6.20;99.90;;;;;;4914101;29;20656;-47
2024/01/05 01:52:27;;;;;;;9.83;2.33;;;6.30;99.90;;;;;;4909494;29;20188;-47
2024/01/05 01:54:52;;;;;;;15.90;2.33;;;6.30;99.90;;;;;;4911314;29;20568;-48
2024/01/05 01:57:19;;;;;;;9.33;2.70;;;6.30;99.90;;;;;;4903897;29;20184;-48
2024/01/05 01:59:44;;;;;;;7.43;2.30;;;6.20;99.90;;;;;;4910327;29;20247;-51
2024/01/05 02:02:12;;;;;;;9.30;2.30;;;6.20;99.90;;;;;;4913818;29;20303;-52
2024/01/05 02:04:38;;;;;;;8.20;2.37;;;6.20;99.90;;;;;;4914647;29;20204;-53
2024/01/05 02:07:04;;;;;;;7.43;2.23;;;6.20;99.90;;;;;;4904862;29;20206;-50
2024/01/05 02:09:30;;;;;;;6.93;2.13;;;6.20;99.90;;;;;;4908523;29;20219;-54
2024/01/05 02:11:56;;;;;;;17.67;3.23;;;6.10;99.90;;;;;;4905746;29;20189;-50
2024/01/05 02:14:22;;;;;;;14.03;3.90;;;6.10;99.90;;;;;;4914075;29;20191;-48
2024/01/05 02:16:47;;;;;;;10.10;3.27;;;6.10;99.90;;;;;;4901976;29;20688;-47
2024/01/05 02:19:13;;;;;;;10.60;3.57;;;6.10;99.90;;;;;;4905352;29;20231;-47
2024/01/05 02:21:42;;;;;;;15.87;4.40;;;6.10;99.90;;;;;;4913816;29;20195;-55
2024/01/05 02:24:07;;;;;;;19.60;4.77;;;6.10;99.90;;;;;;4905847;29;20192;-53
2024/01/05 02:26:33;;;;;;;18.23;4.37;;;6.10;99.90;;;;;;4906612;29;20187;-55
2024/01/05 02:29:04;;;;;;;17.20;4.90;;;6.10;99.90;;;;;;4913568;29;20751;-54
2024/01/05 02:31:29;;;;;;;12.10;3.87;;;6.10;99.90;;;;;;4914001;29;20634;-52
2024/01/05 02:33:55;;;;;;;13.50;3.90;;;6.10;99.90;;;;;;4913245;29;20219;-53
2024/01/05 02:36:21;;;;;;;18.80;3.60;;;6.10;99.90;;;;;;4910045;29;20645;-48
2024/01/05 02:38:46;;;;;;;14.43;3.50;;;6.10;99.90;;;;;;4909752;29;20246;-53
2024/01/05 02:41:12;;;;;;;21.53;4.47;;;6.10;99.90;;;;;;4913818;29;20207;-52
2024/01/05 02:43:37;;;;;;;15.23;4.00;;;6.00;99.90;;;;;;4907122;29;20276;-48
2024/01/05 02:46:03;;;;;;;11.60;3.47;;;5.90;99.90;;;;;;4904395;29;20206;-48
2024/01/05 02:48:28;;;;;;;15.23;3.77;;;5.80;99.90;;;;;;4913995;29;20231;-50
2024/01/05 02:50:54;;;;;;;14.67;4.17;;;5.90;99.90;;;;;;4905772;29;20219;-47
2024/01/05 02:53:19;;;;;;;11.13;4.47;;;6.00;99.90;;;;;;4913073;29;20274;-50
2024/01/05 02:55:45;;;;;;;18.67;4.70;;;6.00;99.90;;;;;;4913663;29;20666;-51
2024/01/05 02:58:11;;;;;;;14.17;4.33;;;6.00;99.90;;;;;;4910821;29;20258;-50
2024/01/05 03:00:36;;;;;;;15.17;4.03;;;6.10;99.90;;;;;;4895065;29;20224;-48
2024/01/05 03:03:03;;;;;;;16.03;3.63;;;6.10;99.90;;;;;;4910967;29;20192;-47
2024/01/05 03:05:29;;;;;;;13.50;3.70;;;6.00;99.90;;;;;;4922943;29;20247;-50
2024/01/05 03:07:54;;;;;;;11.50;3.20;;;6.00;99.90;;;;;;4902632;29;20664;-48
2024/01/05 03:10:20;;;;;;;10.17;3.53;;;6.00;99.90;;;;;;4898296;29;20298;-47
2024/01/05 03:12:46;;;;;;;13.83;3.10;;;6.10;99.90;;;;;;4912533;29;20188;-50
2024/01/05 03:15:19;;;;;;;12.50;2.93;;;6.10;99.90;;;;;;4913187;29;20189;-50
2024/01/05 03:17:46;;;;;;;10.27;3.13;;;6.00;99.90;;;;;;4905864;29;20243;-52
2024/01/05 03:20:11;;;;;;;14.10;3.27;;;6.00;99.90;;;;;;4912772;29;20239;-50
2024/01/05 03:22:37;;;;;;;13.83;3.07;;;6.10;99.90;;;;;;4912672;29;20196;-51
2024/01/05 03:25:03;;;;;;;17.87;3.27;;;6.00;99.90;;;;;;4912807;29;20195;-48
2024/01/05 03:27:28;;;;;;;17.70;3.53;;;6.00;99.90;;;;;;4908626;29;20203;-48
2024/01/05 03:29:56;;;;;;;8.90;3.10;;;5.90;99.90;;;;;;4909785;29;20270;-48
2024/01/05 03:32:21;;;;;;;11.20;3.33;;;5.90;99.90;;;;;;4915275;29;20282;-52
2024/01/05 03:34:47;;;;;;;13.47;3.70;;;6.00;99.90;;;;;;4916963;29;20267;-48
2024/01/05 03:37:12;;;;;;;14.03;3.80;;;6.00;99.90;;;;;;4908112;29;20596;-48
2024/01/05 03:39:39;;;;;;;16.10;3.50;;;6.00;99.90;;;;;;4903528;29;20244;-48
2024/01/05 03:42:04;;;;;;;18.40;4.70;;;6.00;99.90;;;;;;4906732;29;20735;-47
2024/01/05 03:44:30;;;;;;;18.23;4.20;;;6.00;99.90;;;;;;4912142;29;20280;-48
2024/01/05 03:46:55;;;;;;;17.30;4.17;;;6.00;99.90;;;;;;4906530;29;20641;-50
2024/01/05 03:49:21;;;;;;;16.93;3.73;;;6.10;99.90;;;;;;4915388;29;20254;-50
2024/01/05 03:51:47;;;;;;;15.00;3.37;;;6.10;99.90;;;;;;4916746;29;20569;-48
2024/01/05 03:54:12;;;;;;;17.67;5.10;;;6.10;99.90;;;;;;4915921;29;20680;-48
2024/01/05 03:56:42;;;;;;;21.57;4.30;;;6.10;99.90;;;;;;4909012;29;20188;-49
2024/01/05 03:59:08;;;;;;;17.83;3.13;;;6.10;99.90;;;;;;4916326;29;20715;-52
2024/01/05 04:01:45;;;;;;;12.03;2.70;;;6.20;99.90;;;;;;4909002;29;20199;-49
2024/01/05 04:04:11;;;;;;;14.63;2.87;;;6.20;99.90;;;;;;4916100;29;20199;-48
2024/01/05 04:06:36;;;;;;;17.57;3.97;;;6.20;99.90;;;;;;4916510;29;20236;-50
2024/01/05 04:09:03;;;;;;;20.00;4.47;;;6.10;99.90;;;;;;4915005;29;20215;-51
2024/01/05 04:11:30;;;;;;;10.67;3.33;;;6.20;99.90;;;;;;4897886;29;20614;-52
2024/01/05 04:13:56;;;;;;;14.03;3.40;;;6.20;99.90;;;;;;4905342;29;20203;-48
2024/01/05 04:16:21;;;;;;;11.87;3.07;;;6.20;99.90;;;;;;4908765;29;20192;-49
2024/01/05 04:18:47;;;;;;;15.77;3.30;;;6.20;99.90;;;;;;4916230;29;20227;-49
2024/01/05 04:21:14;;;;;;;15.33;3.20;;;6.20;99.90;;;;;;4915682;29;20230;-48
2024/01/05 04:23:41;;;;;;;18.03;3.17;;;6.30;99.90;;;;;;4915628;29;20198;-48
2024/01/05 04:26:06;;;;;;;9.23;2.97;;;6.20;99.90;;;;;;4908514;29;20215;-52
2024/01/05 04:28:32;;;;;;;23.97;3.83;;;6.20;99.90;;;;;;4908652;29;20743;-50
2024/01/05 04:30:57;;;;;;;18.03;3.43;;;6.30;99.90;;;;;;4915900;29;20699;-47
2024/01/05 04:33:23;;;;;;;10.67;3.07;;;6.30;99.90;;;;;;4915505;29;20618;-47
2024/01/05 04:35:48;;;;;;;16.80;3.87;;;6.30;99.90;;;;;;4916192;29;20231;-50
2024/01/05 04:38:14;;;;;;;14.10;3.17;;;6.30;99.90;;;;;;4907709;29;20722;-48
2024/01/05 04:40:40;;;;;;;16.20;3.90;;;6.40;99.90;;;;;;4908573;29;20192;-54
2024/01/05 04:43:05;;;;;;;17.07;3.13;;;6.40;99.90;;;;;;4914765;29;20223;-49
2024/01/05 04:45:31;;;;;;;10.63;3.13;;;6.50;99.90;;;;;;4916195;29;20731;-49
2024/01/05 04:47:56;;;;;;;19.00;3.50;;;6.50;99.90;;;;;;4907836;29;20199;-49
2024/01/05 04:50:22;;;;;;;19.33;3.57;;;6.50;99.90;;;;;;4904705;29;20464;-48
2024/01/05 04:52:47;;;;;;;16.30;4.07;;;6.40;99.90;;;;;;4910063;29;20262;-47
2024/01/05 04:55:14;;;;;;;17.67;3.27;;;6.40;99.90;;;;;;4915239;29;20564;-51
2024/01/05 04:57:41;;;;;;;19.53;3.17;;;6.40;99.90;;;;;;4915804;29;20192;-49
2024/01/05 05:00:08;;;;;;;13.13;3.60;;;6.40;99.90;;;;;;4907871;29;20617;-48
2024/01/05 05:02:34;;;;;;;10.33;3.30;;;6.50;99.90;;;;;;4915016;29;20196;-52
2024/01/05 05:04:59;;;;;;;14.13;3.30;;;6.50;99.90;;;;;;4915319;29;20282;-50
2024/01/05 05:07:25;;;;;;;9.80;3.30;;;6.50;99.90;;;;;;4915211;29;20568;-52
2024/01/05 05:09:50;;;;;;;15.23;2.67;;;6.40;99.90;;;;;;4915420;29;20650;-49
2024/01/05 05:12:16;;;;;;;15.87;3.50;;;6.40;99.90;;;;;;4914465;29;20282;-47
2024/01/05 05:14:42;;;;;;;17.33;3.57;;;6.50;99.90;;;;;;4915406;29;20266;-52
2024/01/05 05:17:08;;;;;;;21.23;3.33;;;6.40;99.90;;;;;;4913426;29;20184;-50
2024/01/05 05:19:33;;;;;;;21.27;4.00;;;6.40;99.90;;;;;;4909430;29;20235;-50
2024/01/05 05:21:59;;;;;;;13.23;3.60;;;6.40;99.90;;;;;;4898935;29;20177;-53
2024/01/05 05:24:25;;;;;;;16.10;3.77;;;6.40;99.90;;;;;;4915042;29;20192;-51
2024/01/05 05:26:50;;;;;;;13.47;4.00;;;6.40;99.90;;;;;;4915511;29;20211;-49
2024/01/05 05:29:16;;;;;;;12.90;3.47;;;6.40;99.90;;;;;;4904546;29;20796;-49
2024/01/05 05:31:42;;;;;;;12.93;3.43;;;6.40;99.90;;;;;;4902630;29;20219;-51
2024/01/05 05:34:07;;;;;;;13.53;4.13;;;6.30;99.90;;;;;;4914016;29;20228;-50
2024/01/05 05:36:33;;;;;;;13.00;3.30;;;6.20;99.90;;;;;;4915234;29;20184;-48
2024/01/05 05:38:58;;;;;;;15.33;3.13;;;6.10;99.90;;;;;;4906969;29;20649;-48
2024/01/05 05:41:24;;;;;;;16.03;3.43;;;6.10;99.90;;;;;;4915053;29;20629;-48
2024/01/05 05:43:50;;;;;;;13.73;2.87;;;6.10;99.90;;;;;;4914310;29;20184;-50
2024/01/05 05:46:16;;;;;;;10.93;3.27;;;6.10;99.90;;;;;;4911723;29;20195;-49
2024/01/05 05:48:42;;;;;;;15.43;3.13;;;6.00;99.90;;;;;;4909963;29;20250;-53
2024/01/05 05:51:07;;;;;;;19.20;3.40;;;5.90;99.90;;;;;;4906692;29;20200;-48
2024/01/05 05:53:34;;;;;;;17.50;3.50;;;5.90;99.90;;;;;;4908930;29;20785;-47
2024/01/05 05:55:59;;;;;;;15.43;2.90;;;6.00;99.90;;;;;;4904017;29;20188;-47
2024/01/05 05:58:26;;;;;;;13.43;2.80;;;6.00;99.90;;;;;;4914540;29;20575;-49
2024/01/05 06:00:52;;;;;;;10.40;2.60;;;6.00;99.90;;;;;;4914465;29;20270;-49
2024/01/05 06:03:18;;;;;;;23.87;3.20;;;6.00;99.90;;;;;;4906000;29;20653;-52
2024/01/05 06:05:43;;;;;;;13.33;3.20;;;6.00;99.90;;;;;;4900342;29;20199;-48
2024/01/05 06:08:09;;;;;;;11.00;2.80;;;6.10;99.90;;;;;;4912888;29;20224;-51
2024/01/05 06:10:34;;;;;;;7.57;2.17;;;6.10;99.90;;;;;;4914054;29;20303;-48
2024/01/05 06:13:00;;;;;;;15.17;2.90;;;6.20;99.90;;;;;;4912915;29;20184;-53
2024/01/05 06:15:25;;;;;;;12.50;2.10;;;6.20;99.90;;;;;;4907277;29;20625;-48
2024/01/05 06:17:51;;;;;;;11.13;2.70;;;6.30;99.90;;;;;;4906483;29;20188;-47
2024/01/05 06:20:17;;;;;;;18.87;2.80;;;6.30;99.90;;;;;;4906215;29;20219;-51
2024/01/05 06:22:43;;;;;;;14.03;2.37;;;6.40;99.90;;;;;;4907323;29;20188;-50
2024/01/05 06:25:08;;;;;;;9.10;2.50;;;6.30;99.90;;;;;;4904726;29;20699;-51
2024/01/05 06:27:34;;;;;;;8.13;2.57;;;6.40;99.90;;;;;;4923258;29;20212;-55
2024/01/05 06:29:59;;;;;;;9.97;2.57;;;6.40;99.90;;;;;;4903521;29;20268;-53
2024/01/05 06:32:25;;;;;;;9.57;2.57;;;6.40;99.90;;;;;;4905063;29;20188;-47
2024/01/05 06:34:51;;;;;;;13.37;2.47;;;6.40;99.90;;;;;;4913910;29;20187;-50
2024/01/05 06:37:16;;;;;;;14.67;2.90;;;6.40;99.90;;;;;;4903362;29;20209;-48
2024/01/05 06:39:42;;;;;;;18.73;2.90;;;6.40;99.90;;;;;;4901591;29;20208;-47
2024/01/05 06:42:07;;;;;;;10.53;2.40;;;6.40;99.90;;;;;;4905467;29;20276;-51
2024/01/05 06:44:33;;;;;;;18.27;2.30;;;6.40;99.90;;;;;;4913677;29;20195;-52
2024/01/05 06:46:59;;;;;;;10.67;2.83;;;6.40;99.90;;;;;;4913546;29;20188;-52
2024/01/05 06:49:25;;;;;;;12.07;2.70;;;6.50;99.90;;;;;;4910210;29;20275;-55
2024/01/05 06:51:50;;;;;;;11.63;3.00;;;6.50;99.90;;;;;;4909913;29;20354;-52
2024/01/05 06:54:17;;;;;;;10.60;2.60;;;6.40;99.90;;;;;;4910167;29;20727;-52
2024/01/05 06:56:42;;;;;;;12.33;3.03;;;6.40;99.90;;;;;;4908887;29;20275;-52
2024/01/05 06:59:09;;;;;;;12.57;3.30;;;6.40;99.90;;;;;;4913269;29;20278;-51
2024/01/05 07:01:34;;;;;;;11.90;3.70;;;6.40;99.90;;;;;;4913785;29;20622;-50
2024/01/05 07:04:00;;;;;;;10.73;3.33;;;6.40;99.90;;;;;;4905131;29;20185;-54
2024/01/05 07:06:25;;;;;;;18.00;3.60;;;6.40;99.90;;;;;;4905794;29;20687;-56
2024/01/05 07:08:51;;;;;;;11.17;3.23;;;6.40;99.90;;;;;;4905869;29;20211;-53
2024/01/05 07:11:24;;;;;;;10.37;3.13;;;6.40;99.90;;;;;;4897104;29;20562;-55
2024/01/05 07:13:50;;;;;;;11.43;3.10;;;6.50;99.90;;;;;;4908831;29;20182;-54
2024/01/05 07:16:17;;;;;;;19.90;3.03;;;6.40;99.90;;;;;;4905322;29;20196;-53
2024/01/05 07:18:43;;;;;;;13.50;3.10;;;6.50;99.90;;;;;;4913366;29;20571;-55
2024/01/05 07:21:09;;;;;;;6.93;2.53;;;6.40;99.90;;;;;;4905425;29;20192;-55
2024/01/05 07:23:39;;;;;;;12.17;3.03;;;6.50;99.90;;;;;;4913007;29;20191;-55
2024/01/05 07:26:04;;;;;;;11.03;2.90;;;6.40;99.90;;;;;;4905578;29;20564;-54
2024/01/05 07:28:30;;;;;;;12.93;4.50;;;6.40;99.90;;;;;;4913029;29;20668;-56
2024/01/05 07:30:56;;;;;;;9.67;2.97;;;6.40;99.90;;;;;;4913135;29;20211;-52
2024/01/05 07:33:21;;;;;;;14.27;2.97;;;6.40;99.90;;;;;;4897805;29;20187;-50
2024/01/05 07:35:48;;;;;;;10.97;2.80;;;6.40;99.90;;;;;;4908502;29;20177;-52
2024/01/05 07:38:13;;;;;;;12.73;2.67;;;6.40;99.90;;;;;;4911033;29;20299;-54
2024/01/05 07:40:39;;;;;;;16.23;3.40;;;6.50;99.90;;;;;;4905301;29;20310;-56
2024/01/05 07:43:05;;;;;;;17.00;4.60;;;6.50;99.90;;;;;;4911172;29;20216;-56
2024/01/05 07:45:30;;;;;;;9.73;3.00;;;6.40;99.90;;;;;;4906722;29;20188;-53
2024/01/05 07:47:57;;;;;;;10.50;3.20;;;6.40;99.90;;;;;;4912797;29;20727;-51
2024/01/05 07:50:24;;;;;;;14.53;3.73;;;6.40;99.90;;;;;;4912994;29;20279;-56
2024/01/05 07:52:49;;;;;;;12.83;3.20;;;6.40;99.90;;;;;;4911838;29;20188;-54
2024/01/05 07:55:15;;;;;;;14.33;3.37;;;6.40;99.90;;;;;;4912323;29;20598;-54
2024/01/05 07:57:53;;;;;;;10.70;3.60;;;6.40;99.90;;;;;;4906419;29;20650;-57
2024/01/05 08:00:19;;;;;;;14.40;3.77;;;6.40;99.90;;;;;;4896562;29;20210;-51
2024/01/05 08:02:44;;;;;;;26.23;7.50;;;6.50;99.90;;;;;;4911799;29;20180;-53
2024/01/05 08:05:13;;;;;;;12.07;3.10;;;6.50;99.90;;;;;;4904290;29;20278;-52
2024/01/05 08:07:38;;;;;;;21.50;6.77;;;6.60;99.90;;;;;;4904644;29;20251;-55
2024/01/05 08:10:04;;;;;;;14.00;4.50;;;6.60;99.90;;;;;;4904084;29;20224;-53
2024/01/05 08:12:30;;;;;;;15.57;3.57;;;6.60;99.90;;;;;;4904130;29;20252;-54
2024/01/05 08:14:55;;;;;;;10.57;3.47;;;6.70;99.90;;;;;;4912064;29;20687;-50
2024/01/05 08:17:21;;;;;;;10.77;4.10;;;6.60;99.90;;;;;;4912579;29;20191;-53
2024/01/05 08:19:47;;;;;;;10.87;3.50;;;6.60;99.90;;;;;;4909069;29;20220;-53
2024/01/05 08:22:13;;;;;;;12.47;3.13;;;6.70;99.90;;;;;;4913946;29;20180;-52
2024/01/05 08:24:38;;;;;;;12.87;3.17;;;6.70;99.90;;;;;;4915505;29;20184;-50
2024/01/05 08:27:04;;;;;;;14.93;3.30;;;6.70;99.90;;;;;;4906674;29;20209;-53
2024/01/05 08:29:30;;;;;;;11.73;2.50;;;6.70;99.90;;;;;;4909203;29;20204;-50
2024/01/05 08:31:58;;;;;;;11.70;3.00;;;6.70;99.90;;;;;;4913459;29;20191;-52
2024/01/05 08:34:24;;;;;;;10.27;3.20;;;6.60;99.90;;;;;;4900367;29;20203;-51
2024/01/05 08:36:49;;;;;;;12.80;3.13;;;6.60;99.90;;;;;;4908668;29;20184;-53
2024/01/05 08:39:15;;;;;;;8.50;3.43;;;6.60;99.90;;;;;;4906936;29;20219;-52
2024/01/05 08:41:43;;;;;;;12.40;3.37;;;6.60;99.90;;;;;;4909947;29;20551;-51
2024/01/05 08:44:09;;;;;;;11.37;3.00;;;6.70;99.90;;;;;;4913413;29;20495;-52
2024/01/05 08:46:34;;;;;;;7.87;2.60;;;6.70;99.90;;;;;;4915807;29;20304;-55
2024/01/05 08:49:00;;;;;;;12.43;3.33;;;6.70;99.90;;;;;;4914877;29;20204;-56
2024/01/05 08:51:26;;;;;;;11.70;2.97;;;6.70;99.90;;;;;;4911446;29;20387;-56
2024/01/05 08:53:51;;;;;;;6.83;2.63;;;6.70;99.90;;;;;;4910758;29;20663;-56
2024/01/05 08:56:17;;;;;;;6.70;3.00;;;6.60;99.90;;;;;;4914801;29;20184;-54
2024/01/05 08:58:42;;;;;;;9.77;2.60;;;6.70;99.90;;;;;;4915027;29;20572;-52
2024/01/05 09:01:08;;;;;;;10.83;3.10;;;6.70;99.90;;;;;;4915036;29;20235;-57
2024/01/05 09:03:33;;;;;;;8.37;2.87;;;6.80;99.90;;;;;;4914634;29;20195;-58
2024/01/05 09:05:59;;;;;;;12.17;3.93;;;6.70;99.90;;;;;;4906974;29;20188;-55
2024/01/05 09:08:25;;;;;;;16.67;3.67;;;6.80;99.90;;;;;;4903664;29;20191;-56
2024/01/05 09:10:50;;;;;;;12.90;3.37;;;6.80;99.90;;;;;;4904129;29;20630;-58
2024/01/05 09:13:16;;;;;;;11.73;3.70;;;6.80;99.90;;;;;;4913468;29;20316;-57
2024/01/05 09:15:42;;;;;;;10.53;3.13;;;6.80;99.90;;;;;;4907447;29;20191;-56
2024/01/05 09:18:08;;;;;;;11.23;2.30;;;6.80;99.90;;;;;;4914476;29;20184;-52
2024/01/05 09:20:33;;;;;;;6.93;2.50;;;6.80;99.90;;;;;;4906928;29;20617;-57
2024/01/05 09:23:00;;;;;;;12.23;3.00;;;6.80;99.90;;;;;;4914050;29;20190;-57
2024/01/05 09:25:26;;;;;;;8.43;2.60;;;6.90;99.90;;;;;;4909757;29;20217;-54
2024/01/05 09:27:51;;;;;;;10.43;2.50;;;7.00;99.90;;;;;;4903598;29;20180;-55
2024/01/05 09:30:17;;;;;;;5.70;2.57;;;7.00;99.90;;;;;;4912820;29;20215;-54
2024/01/05 09:32:43;;;;;;;15.40;5.37;;;7.00;99.90;;;;;;4913869;29;20188;-57
2024/01/05 09:35:08;;;;;;;13.80;3.27;;;7.00;99.90;;;;;;4913011;29;20184;-58
2024/01/05 09:37:36;;;;;;;8.57;2.70;;;7.10;99.90;;;;;;4900662;29;20184;-56
2024/01/05 09:40:02;;;;;;;11.20;3.10;;;7.20;99.90;;;;;;4913922;29;20295;-57
2024/01/05 09:42:28;;;;;;;8.93;3.00;;;7.20;99.90;;;;;;4913729;29;20187;-55
2024/01/05 09:44:54;;;;;;;7.60;2.73;;;7.30;99.90;;;;;;4914353;29;20184;-57
2024/01/05 09:47:21;;;;;;;5.73;2.47;;;7.40;99.90;;;;;;4914267;29;20192;-57
2024/01/05 09:49:49;;;;;;;12.73;2.20;;;7.30;99.90;;;;;;4914071;29;20222;-54
2024/01/05 09:52:15;;;;;;;8.63;2.47;;;7.30;99.90;;;;;;4905893;29;20195;-57
2024/01/05 09:54:42;;;;;;;12.77;2.43;;;7.30;99.90;;;;;;4909086;29;20513;-56
2024/01/05 09:57:15;;;;;;;8.37;2.33;;;7.30;99.90;;;;;;4912024;29;20609;-58
2024/01/05 09:59:41;;;;;;;10.20;2.83;;;7.30;99.90;;;;;;4914088;29;20200;-57
2024/01/05 10:02:13;;;;;;;9.50;2.60;;;7.20;99.90;;;;;;4913662;29;20201;-54
2024/01/05 10:04:39;;;;;;;9.13;2.30;;;7.10;99.90;;;;;;4906336;29;20288;-55
2024/01/05 10:07:05;;;;;;;13.03;2.70;;;7.20;99.90;;;;;;4905330;29;20708;-55
2024/01/05 10:09:31;;;;;;;10.73;2.40;;;7.30;99.90;;;;;;4900307;29;20284;-54
2024/01/05 10:11:57;;;;;;;12.67;2.80;;;7.30;99.90;;;;;;4900622;29;20238;-52
2024/01/05 10:14:27;;;;;;;8.80;2.23;;;7.40;99.90;;;;;;4913915;29;20188;-55
2024/01/05 10:17:07;;;;;;;8.00;2.70;;;7.50;99.90;;;;;;4906453;29;20189;-54
2024/01/05 10:19:33;;;;;;;8.97;2.33;;;7.60;99.90;;;;;;4895211;29;20224;-56
2024/01/05 10:22:11;;;;;;;9.87;2.07;;;7.80;99.90;;;;;;4901705;29;20192;-53
2024/01/05 10:24:37;;;;;;;7.23;2.10;;;7.80;99.90;;;;;;4907841;29;20195;-52
2024/01/05 10:27:07;;;;;;;7.07;1.77;;;8.00;99.90;;;;;;4909824;29;20215;-51
2024/01/05 10:29:36;;;;;;;7.10;1.83;;;8.10;99.90;;;;;;4906906;29;20650;-56
2024/01/05 10:32:14;;;;;;;7.43;1.80;;;8.20;99.90;;;;;;4913010;29;20227;-52
2024/01/05 10:34:42;;;;;;;6.87;1.60;;;8.20;99.90;;;;;;4913023;29;20331;-55
2024/01/05 10:37:08;;;;;;;3.17;1.60;;;8.10;99.90;;;;;;4913227;29;20180;-58
2024/01/05 10:39:35;;;;;;;4.97;1.60;;;8.20;99.90;;;;;;4913080;29;20204;-53
2024/01/05 10:42:27;;;;;;;8.73;2.13;;;8.40;99.90;;;;;;4912095;29;20188;-53
2024/01/05 10:44:56;;;;;;;6.20;1.87;;;8.40;99.90;;;;;;4913272;29;20271;-57
2024/01/05 10:47:23;;;;;;;7.77;1.93;;;8.60;99.90;;;;;;4912988;29;20191;-55
2024/01/05 10:49:51;;;;;;;10.53;2.37;;;8.70;99.90;;;;;;4913225;29;20487;-53
2024/01/05 10:52:18;;;;;;;5.97;1.90;;;8.70;99.90;;;;;;4912117;29;20507;-55
2024/01/05 10:54:46;;;;;;;8.07;1.80;;;8.80;99.90;;;;;;4913182;29;20203;-52
2024/01/05 10:57:13;;;;;;;5.00;1.60;;;8.90;99.90;;;;;;4904893;29;20697;-57
2024/01/05 10:59:38;;;;;;;9.10;2.33;;;9.00;99.90;;;;;;4900293;29;20211;-52
2024/01/05 11:02:13;;;;;;;4.93;1.80;;;9.00;99.90;;;;;;4909054;29;20188;-54
2024/01/05 11:04:42;;;;;;;10.87;2.23;;;9.10;99.90;;;;;;4907405;29;20211;-56
2024/01/05 11:07:09;;;;;;;9.00;1.90;;;9.10;99.90;;;;;;4910995;29;20184;-55
2024/01/05 11:10:04;;;;;;;6.50;1.60;;;9.10;99.90;;;;;;4905975;29;20280;-55
2024/01/05 11:12:40;;;;;;;4.73;1.20;;;9.20;99.90;;;;;;4904794;29;20328;-55
2024/01/05 11:15:07;;;;;;;6.70;1.83;;;9.20;99.90;;;;;;4912196;29;20179;-56
2024/01/05 11:17:54;;;;;;;5.93;1.80;;;9.10;99.90;;;;;;4904686;29;20216;-57
2024/01/05 11:20:52;;;;;;;2.50;1.00;;;8.90;99.90;;;;;;4904603;29;20208;-54
2024/01/05 11:23:20;;;;;;;4.23;1.30;;;8.70;99.90;;;;;;4893329;29;20215;-52
2024/01/05 11:25:46;;;;;;;3.13;1.60;;;8.50;99.90;;;;;;4907803;29;20247;-52
2024/01/05 11:28:34;;;;;;;3.87;1.07;;;8.40;99.90;;;;;;4897096;29;20192;-54
2024/01/05 11:31:00;;;;;;;3.00;1.00;;;8.40;99.90;;;;;;4912217;29;20208;-52
2024/01/05 11:33:48;;;;;;;4.40;1.13;;;8.30;99.90;;;;;;4901397;29;20188;-55
2024/01/05 11:36:33;;;;;;;4.63;1.00;;;8.20;99.90;;;;;;4908954;29;20254;-57
2024/01/05 11:38:59;;;;;;;4.20;0.90;;;8.20;99.90;;;;;;4901427;29;20207;-53
2024/01/05 11:41:25;;;;;;;7.57;1.90;;;8.10;99.90;;;;;;4894057;29;20190;-56
2024/01/05 11:43:51;;;;;;;4.83;1.10;;;8.10;99.90;;;;;;4901016;29;20184;-54
2024/01/05 11:46:17;;;;;;;4.87;1.50;;;8.10;99.90;;;;;;4895834;29;20223;-54
2024/01/05 11:48:47;;;;;;;12.53;3.20;;;8.20;99.90;;;;;;4904824;29;20235;-52
2024/01/05 11:51:13;;;;;;;6.77;2.20;;;8.20;99.90;;;;;;4908883;29;20212;-54
2024/01/05 11:53:38;;;;;;;4.13;1.27;;;8.20;99.90;;;;;;4906957;29;20182;-50
2024/01/05 11:56:17;;;;;;;2.83;1.40;;;8.20;99.90;;;;;;4900799;29;20177;-54
2024/01/05 11:58:43;;;;;;;4.07;1.20;;;8.30;99.90;;;;;;4908554;29;20282;-56
2024/01/05 12:01:10;;;;;;;4.00;1.47;;;8.40;99.90;;;;;;4915646;29;20656;-53
2024/01/05 12:03:38;;;;;;;5.50;1.30;;;8.40;99.90;;;;;;4903004;29;20181;-55
2024/01/05 12:06:06;;;;;;;4.20;1.23;;;8.50;99.90;;;;;;4905167;29;20188;-57
2024/01/05 12:08:32;;;;;;;5.93;1.90;;;8.60;99.90;;;;;;4908442;29;20289;-58
2024/01/05 12:11:02;;;;;;;5.93;1.50;;;8.70;99.90;;;;;;4900685;29;20209;-54
2024/01/05 12:13:29;;;;;;;3.63;1.40;;;8.80;99.90;;;;;;4896806;29;20180;-56
2024/01/05 12:16:05;;;;;;;1.90;0.57;;;9.00;99.90;;;;;;4897133;29;20189;-53
2024/01/05 12:18:32;;;;;;;4.20;1.77;;;9.10;99.90;;;;;;4908574;29;20578;-54
2024/01/05 12:21:01;;;;;;;5.03;0.93;;;9.10;99.90;;;;;;4916001;29;20200;-57
2024/01/05 12:23:29;;;;;;;2.90;1.10;;;9.00;99.90;;;;;;4915260;29;20259;-56
2024/01/05 12:26:08;;;;;;;5.03;1.60;;;9.00;99.90;;;;;;4908736;29;20181;-55
2024/01/05 12:28:35;;;;;;;4.03;1.13;;;8.90;99.90;;;;;;4901533;29;20215;-53
2024/01/05 12:31:02;;;;;;;6.67;1.53;;;9.10;99.90;;;;;;4907198;29;20291;-53
2024/01/05 12:33:30;;;;;;;3.37;1.30;;;9.20;99.90;;;;;;4915242;29;20179;-56
2024/01/05 12:35:56;;;;;;;5.37;1.07;;;9.30;99.90;;;;;;4907910;29;20211;-54
2024/01/05 12:38:26;;;;;;;4.50;0.90;;;9.40;99.90;;;;;;4912704;29;20245;-60
2024/01/05 12:41:03;;;;;;;9.07;2.60;;;9.30;99.90;;;;;;4911219;29;20179;-51
2024/01/05 12:43:29;;;;;;;3.10;0.90;;;9.20;99.90;;;;;;4907004;29;20183;-52
2024/01/05 12:45:54;;;;;;;2.23;1.00;;;9.20;99.90;;;;;;4907463;29;20873;-52
2024/01/05 12:48:26;;;;;;;3.10;0.90;;;9.30;99.90;;;;;;4904873;29;20199;-51